sensor_id;sensor_type;location;lat;lon;timestamp;temperature;humidity
37410;DHT22;23275;48.914;12.566;2023-04-25T00:02:05;7.80;99.90
37410;DHT22;23275;48.914;12.566;2023-04-25T00:04:32;7.80;99.90
37410;DHT22;23275;48.914;12.566;2023-04-25T00:06:59;7.70;99.90
37410;DHT22;23275;48.914;12.566;2023-04-25T00:09:27;7.70;99.90
37410;DHT22;23275;48.914;12.566;2023-04-25T00:11:53;7.70;99.90
37410;DHT22;23275;48.914;12.566;2023-04-25T00:14:18;7.70;99.90
37410;DHT22;23275;48.914;12.566;2023-04-25T00:16:44;7.70;99.90
37410;DHT22;23275;48.914;12.566;2023-04-25T00:19:10;7.70;99.90
37410;DHT22;23275;48.914;12.566;2023-04-25T00:21:36;7.70;99.90
37410;DHT22;23275;48.914;12.566;2023-04-25T00:24:03;7.60;99.90
37410;DHT22;23275;48.914;12.566;2023-04-25T00:26:29;7.60;99.90
37410;DHT22;23275;48.914;12.566;2023-04-25T00:28:55;7.60;99.90
37410;DHT22;23275;48.914;12.566;2023-04-25T00:31:21;7.60;99.90
37410;DHT22;23275;48.914;12.566;2023-04-25T00:33:47;7.60;99.90
37410;DHT22;23275;48.914;12.566;2023-04-25T00:36:13;7.50;99.90
37410;DHT22;23275;48.914;12.566;2023-04-25T00:38:40;7.50;99.90
37410;DHT22;23275;48.914;12.566;2023-04-25T00:41:08;7.50;99.90
37410;DHT22;23275;48.914;12.566;2023-04-25T00:43:36;7.50;99.90
37410;DHT22;23275;48.914;12.566;2023-04-25T00:46:02;7.50;99.90
37410;DHT22;23275;48.914;12.566;2023-04-25T00:48:27;7.50;99.90
37410;DHT22;23275;48.914;12.566;2023-04-25T00:50:55;7.40;99.90
37410;DHT22;23275;48.914;12.566;2023-04-25T00:53:23;7.40;99.90
37410;DHT22;23275;48.914;12.566;2023-04-25T00:55:49;7.40;99.90
37410;DHT22;23275;48.914;12.566;2023-04-25T00:58:19;7.30;99.90
37410;DHT22;23275;48.914;12.566;2023-04-25T01:00:46;7.20;99.90
37410;DHT22;23275;48.914;12.566;2023-04-25T01:03:13;7.20;99.90
37410;DHT22;23275;48.914;12.566;2023-04-25T01:05:42;7.10;99.90
37410;DHT22;23275;48.914;12.566;2023-04-25T01:08:09;7.10;99.90
37410;DHT22;23275;48.914;12.566;2023-04-25T01:10:36;7.10;99.90
37410;DHT22;23275;48.914;12.566;2023-04-25T01:13:01;7.10;99.90
37410;DHT22;23275;48.914;12.566;2023-04-25T01:15:27;7.10;99.90
37410;DHT22;23275;48.914;12.566;2023-04-25T01:17:53;7.10;99.90
37410;DHT22;23275;48.914;12.566;2023-04-25T01:20:22;7.10;99.90
37410;DHT22;23275;48.914;12.566;2023-04-25T01:22:48;7.00;99.90
37410;DHT22;23275;48.914;12.566;2023-04-25T01:25:14;6.90;99.90
37410;DHT22;23275;48.914;12.566;2023-04-25T01:27:40;6.90;99.90
37410;DHT22;23275;48.914;12.566;2023-04-25T01:30:06;6.90;99.90
37410;DHT22;23275;48.914;12.566;2023-04-25T01:32:33;6.90;99.90
37410;DHT22;23275;48.914;12.566;2023-04-25T01:35:05;6.90;99.90
37410;DHT22;23275;48.914;12.566;2023-04-25T01:37:35;6.90;99.90
37410;DHT22;23275;48.914;12.566;2023-04-25T01:40:01;6.90;99.90
37410;DHT22;23275;48.914;12.566;2023-04-25T01:42:27;7.00;99.90
37410;DHT22;23275;48.914;12.566;2023-04-25T01:44:52;7.00;99.90
37410;DHT22;23275;48.914;12.566;2023-04-25T01:47:18;7.00;99.90
37410;DHT22;23275;48.914;12.566;2023-04-25T01:49:44;7.00;99.90
37410;DHT22;23275;48.914;12.566;2023-04-25T01:52:09;7.00;99.90
37410;DHT22;23275;48.914;12.566;2023-04-25T01:54:35;7.10;99.90
37410;DHT22;23275;48.914;12.566;2023-04-25T01:57:00;7.10;99.90
37410;DHT22;23275;48.914;12.566;2023-04-25T01:59:27;7.10;99.90
37410;DHT22;23275;48.914;12.566;2023-04-25T02:01:52;7.10;99.90
37410;DHT22;23275;48.914;12.566;2023-04-25T02:04:18;7.10;99.90
37410;DHT22;23275;48.914;12.566;2023-04-25T02:06:43;7.10;99.90
37410;DHT22;23275;48.914;12.566;2023-04-25T02:09:09;7.10;99.90
37410;DHT22;23275;48.914;12.566;2023-04-25T02:11:34;7.10;99.90
37410;DHT22;23275;48.914;12.566;2023-04-25T02:14:00;7.20;99.90
37410;DHT22;23275;48.914;12.566;2023-04-25T02:16:26;7.20;99.90
37410;DHT22;23275;48.914;12.566;2023-04-25T02:18:51;7.20;99.90
37410;DHT22;23275;48.914;12.566;2023-04-25T02:21:18;7.20;99.90
37410;DHT22;23275;48.914;12.566;2023-04-25T02:23:43;7.20;99.90
37410;DHT22;23275;48.914;12.566;2023-04-25T02:26:12;7.20;99.90
37410;DHT22;23275;48.914;12.566;2023-04-25T02:28:38;7.30;99.90
37410;DHT22;23275;48.914;12.566;2023-04-25T02:31:04;7.30;99.90
37410;DHT22;23275;48.914;12.566;2023-04-25T02:33:30;7.30;99.90
37410;DHT22;23275;48.914;12.566;2023-04-25T02:35:56;7.30;99.90
37410;DHT22;23275;48.914;12.566;2023-04-25T02:38:21;7.40;99.90
37410;DHT22;23275;48.914;12.566;2023-04-25T02:40:47;7.40;99.90
37410;DHT22;23275;48.914;12.566;2023-04-25T02:43:12;7.40;99.90
37410;DHT22;23275;48.914;12.566;2023-04-25T02:45:38;7.40;99.90
37410;DHT22;23275;48.914;12.566;2023-04-25T02:48:04;7.40;99.90
37410;DHT22;23275;48.914;12.566;2023-04-25T02:50:29;7.40;99.90
37410;DHT22;23275;48.914;12.566;2023-04-25T02:52:55;7.40;99.90
37410;DHT22;23275;48.914;12.566;2023-04-25T02:55:20;7.30;99.90
37410;DHT22;23275;48.914;12.566;2023-04-25T02:57:47;7.30;99.90
37410;DHT22;23275;48.914;12.566;2023-04-25T03:00:13;7.40;99.90
37410;DHT22;23275;48.914;12.566;2023-04-25T03:02:39;7.40;99.90
37410;DHT22;23275;48.914;12.566;2023-04-25T03:05:05;7.40;99.90
37410;DHT22;23275;48.914;12.566;2023-04-25T03:07:31;7.40;99.90
37410;DHT22;23275;48.914;12.566;2023-04-25T03:09:57;7.30;99.90
37410;DHT22;23275;48.914;12.566;2023-04-25T03:12:22;7.30;99.90
37410;DHT22;23275;48.914;12.566;2023-04-25T03:14:48;7.30;99.90
37410;DHT22;23275;48.914;12.566;2023-04-25T03:17:13;7.30;99.90
37410;DHT22;23275;48.914;12.566;2023-04-25T03:19:39;7.20;99.90
37410;DHT22;23275;48.914;12.566;2023-04-25T03:22:05;7.10;99.90
37410;DHT22;23275;48.914;12.566;2023-04-25T03:24:31;7.10;99.90
37410;DHT22;23275;48.914;12.566;2023-04-25T03:26:57;7.10;99.90
37410;DHT22;23275;48.914;12.566;2023-04-25T03:29:22;7.10;99.90
37410;DHT22;23275;48.914;12.566;2023-04-25T03:31:50;7.10;99.90
37410;DHT22;23275;48.914;12.566;2023-04-25T03:34:16;7.10;99.90
37410;DHT22;23275;48.914;12.566;2023-04-25T03:36:42;7.10;99.90
37410;DHT22;23275;48.914;12.566;2023-04-25T03:39:07;7.10;99.90
37410;DHT22;23275;48.914;12.566;2023-04-25T03:41:33;7.10;99.90
37410;DHT22;23275;48.914;12.566;2023-04-25T03:43:58;7.10;99.90
37410;DHT22;23275;48.914;12.566;2023-04-25T03:46:24;7.00;99.90
37410;DHT22;23275;48.914;12.566;2023-04-25T03:48:50;7.00;99.90
37410;DHT22;23275;48.914;12.566;2023-04-25T03:51:15;7.00;99.90
37410;DHT22;23275;48.914;12.566;2023-04-25T03:53:41;7.00;99.90
37410;DHT22;23275;48.914;12.566;2023-04-25T03:56:06;7.10;99.90
37410;DHT22;23275;48.914;12.566;2023-04-25T03:58:32;7.00;99.90
37410;DHT22;23275;48.914;12.566;2023-04-25T04:00:57;7.00;99.90
37410;DHT22;23275;48.914;12.566;2023-04-25T04:03:23;7.00;99.90
37410;DHT22;23275;48.914;12.566;2023-04-25T04:05:49;7.10;99.90
37410;DHT22;23275;48.914;12.566;2023-04-25T04:08:15;7.10;99.90
37410;DHT22;23275;48.914;12.566;2023-04-25T04:10:41;7.10;99.90
37410;DHT22;23275;48.914;12.566;2023-04-25T04:13:06;7.10;99.90
37410;DHT22;23275;48.914;12.566;2023-04-25T04:15:32;7.20;99.90
37410;DHT22;23275;48.914;12.566;2023-04-25T04:17:58;7.20;99.90
37410;DHT22;23275;48.914;12.566;2023-04-25T04:20:28;7.10;99.90
37410;DHT22;23275;48.914;12.566;2023-04-25T04:22:54;7.10;99.90
37410;DHT22;23275;48.914;12.566;2023-04-25T04:25:20;7.10;99.90
37410;DHT22;23275;48.914;12.566;2023-04-25T04:27:45;7.10;99.90
37410;DHT22;23275;48.914;12.566;2023-04-25T04:30:11;7.20;99.90
37410;DHT22;23275;48.914;12.566;2023-04-25T04:32:37;7.20;99.90
37410;DHT22;23275;48.914;12.566;2023-04-25T04:35:04;7.20;99.90
37410;DHT22;23275;48.914;12.566;2023-04-25T04:37:30;7.20;99.90
37410;DHT22;23275;48.914;12.566;2023-04-25T04:39:56;7.10;99.90
37410;DHT22;23275;48.914;12.566;2023-04-25T04:42:22;7.10;99.90
37410;DHT22;23275;48.914;12.566;2023-04-25T04:44:49;7.20;99.90
37410;DHT22;23275;48.914;12.566;2023-04-25T04:47:15;7.30;99.90
37410;DHT22;23275;48.914;12.566;2023-04-25T04:49:41;7.30;99.90
37410;DHT22;23275;48.914;12.566;2023-04-25T04:52:06;7.40;99.90
37410;DHT22;23275;48.914;12.566;2023-04-25T04:54:32;7.50;99.90
37410;DHT22;23275;48.914;12.566;2023-04-25T04:56:58;7.50;99.90
37410;DHT22;23275;48.914;12.566;2023-04-25T04:59:25;7.50;99.90
37410;DHT22;23275;48.914;12.566;2023-04-25T05:01:50;7.60;99.90
37410;DHT22;23275;48.914;12.566;2023-04-25T05:04:16;7.80;99.90
37410;DHT22;23275;48.914;12.566;2023-04-25T05:06:41;7.90;99.90
37410;DHT22;23275;48.914;12.566;2023-04-25T05:09:07;8.00;99.90
37410;DHT22;23275;48.914;12.566;2023-04-25T05:11:32;8.10;99.90
37410;DHT22;23275;48.914;12.566;2023-04-25T05:13:58;8.10;99.90
37410;DHT22;23275;48.914;12.566;2023-04-25T05:16:23;8.00;99.90
37410;DHT22;23275;48.914;12.566;2023-04-25T05:18:49;8.00;99.90
37410;DHT22;23275;48.914;12.566;2023-04-25T05:21:14;8.00;99.90
37410;DHT22;23275;48.914;12.566;2023-04-25T05:23:40;8.00;99.90
37410;DHT22;23275;48.914;12.566;2023-04-25T05:26:06;8.00;99.90
37410;DHT22;23275;48.914;12.566;2023-04-25T05:28:39;8.00;99.90
37410;DHT22;23275;48.914;12.566;2023-04-25T05:31:05;8.00;99.90
37410;DHT22;23275;48.914;12.566;2023-04-25T05:33:30;8.00;99.90
37410;DHT22;23275;48.914;12.566;2023-04-25T05:35:56;8.00;99.90
37410;DHT22;23275;48.914;12.566;2023-04-25T05:38:21;8.00;99.90
37410;DHT22;23275;48.914;12.566;2023-04-25T05:40:47;8.20;99.90
37410;DHT22;23275;48.914;12.566;2023-04-25T05:43:13;8.40;99.90
37410;DHT22;23275;48.914;12.566;2023-04-25T05:45:38;8.60;99.90
37410;DHT22;23275;48.914;12.566;2023-04-25T05:48:04;8.80;99.90
37410;DHT22;23275;48.914;12.566;2023-04-25T05:50:29;8.90;99.90
37410;DHT22;23275;48.914;12.566;2023-04-25T05:52:55;8.90;99.90
37410;DHT22;23275;48.914;12.566;2023-04-25T05:55:20;8.90;99.90
37410;DHT22;23275;48.914;12.566;2023-04-25T05:57:46;8.90;99.90
37410;DHT22;23275;48.914;12.566;2023-04-25T06:00:13;8.60;99.90
37410;DHT22;23275;48.914;12.566;2023-04-25T06:02:40;8.50;99.90
37410;DHT22;23275;48.914;12.566;2023-04-25T06:05:06;8.50;99.90
37410;DHT22;23275;48.914;12.566;2023-04-25T06:07:31;8.60;99.90
37410;DHT22;23275;48.914;12.566;2023-04-25T06:09:57;8.90;99.90
37410;DHT22;23275;48.914;12.566;2023-04-25T06:12:23;9.50;99.90
37410;DHT22;23275;48.914;12.566;2023-04-25T06:14:48;10.10;99.90
37410;DHT22;23275;48.914;12.566;2023-04-25T06:17:14;10.50;99.90
37410;DHT22;23275;48.914;12.566;2023-04-25T06:19:39;10.70;99.90
37410;DHT22;23275;48.914;12.566;2023-04-25T06:22:06;10.80;99.90
37410;DHT22;23275;48.914;12.566;2023-04-25T06:24:32;10.80;99.90
37410;DHT22;23275;48.914;12.566;2023-04-25T06:26:58;10.90;99.90
37410;DHT22;23275;48.914;12.566;2023-04-25T06:29:24;10.80;99.90
37410;DHT22;23275;48.914;12.566;2023-04-25T06:31:49;10.80;99.90
37410;DHT22;23275;48.914;12.566;2023-04-25T06:34:15;10.70;99.90
37410;DHT22;23275;48.914;12.566;2023-04-25T06:36:41;10.80;99.90
37410;DHT22;23275;48.914;12.566;2023-04-25T06:39:07;11.20;99.90
37410;DHT22;23275;48.914;12.566;2023-04-25T06:41:33;11.40;99.90
37410;DHT22;23275;48.914;12.566;2023-04-25T06:43:58;11.50;99.90
37410;DHT22;23275;48.914;12.566;2023-04-25T06:46:24;11.50;99.90
37410;DHT22;23275;48.914;12.566;2023-04-25T06:48:49;11.50;99.90
37410;DHT22;23275;48.914;12.566;2023-04-25T06:51:15;11.50;99.90
37410;DHT22;23275;48.914;12.566;2023-04-25T06:53:41;11.40;99.90
37410;DHT22;23275;48.914;12.566;2023-04-25T06:56:07;11.60;99.90
37410;DHT22;23275;48.914;12.566;2023-04-25T06:58:33;12.30;99.90
37410;DHT22;23275;48.914;12.566;2023-04-25T07:00:58;13.10;99.90
37410;DHT22;23275;48.914;12.566;2023-04-25T07:03:24;13.70;99.90
37410;DHT22;23275;48.914;12.566;2023-04-25T07:05:50;14.30;99.90
37410;DHT22;23275;48.914;12.566;2023-04-25T07:08:16;14.90;99.90
37410;DHT22;23275;48.914;12.566;2023-04-25T07:10:42;14.30;99.90
37410;DHT22;23275;48.914;12.566;2023-04-25T07:13:07;14.20;99.90
37410;DHT22;23275;48.914;12.566;2023-04-25T07:15:33;14.30;99.90
37410;DHT22;23275;48.914;12.566;2023-04-25T07:17:59;14.70;99.90
37410;DHT22;23275;48.914;12.566;2023-04-25T07:20:24;15.00;99.90
37410;DHT22;23275;48.914;12.566;2023-04-25T07:22:50;15.20;99.90
37410;DHT22;23275;48.914;12.566;2023-04-25T07:25:16;15.40;99.90
37410;DHT22;23275;48.914;12.566;2023-04-25T07:27:42;16.00;99.90
37410;DHT22;23275;48.914;12.566;2023-04-25T07:30:08;16.50;99.90
37410;DHT22;23275;48.914;12.566;2023-04-25T07:32:35;16.40;99.90
37410;DHT22;23275;48.914;12.566;2023-04-25T07:35:00;15.80;99.90
37410;DHT22;23275;48.914;12.566;2023-04-25T07:37:27;15.20;99.90
37410;DHT22;23275;48.914;12.566;2023-04-25T07:39:52;14.70;99.90
37410;DHT22;23275;48.914;12.566;2023-04-25T07:42:18;14.50;99.90
37410;DHT22;23275;48.914;12.566;2023-04-25T07:44:43;14.30;99.90
37410;DHT22;23275;48.914;12.566;2023-04-25T07:47:09;14.20;99.90
37410;DHT22;23275;48.914;12.566;2023-04-25T07:49:36;14.10;99.90
37410;DHT22;23275;48.914;12.566;2023-04-25T07:52:03;13.80;99.90
37410;DHT22;23275;48.914;12.566;2023-04-25T07:54:29;13.50;99.90
37410;DHT22;23275;48.914;12.566;2023-04-25T07:56:55;13.40;99.90
37410;DHT22;23275;48.914;12.566;2023-04-25T07:59:21;13.80;99.90
37410;DHT22;23275;48.914;12.566;2023-04-25T08:01:47;14.40;99.90
37410;DHT22;23275;48.914;12.566;2023-04-25T08:04:12;15.30;99.90
37410;DHT22;23275;48.914;12.566;2023-04-25T08:06:38;16.30;99.90
37410;DHT22;23275;48.914;12.566;2023-04-25T08:09:03;17.30;99.90
37410;DHT22;23275;48.914;12.566;2023-04-25T08:11:29;17.60;99.90
37410;DHT22;23275;48.914;12.566;2023-04-25T08:13:55;18.00;99.90
37410;DHT22;23275;48.914;12.566;2023-04-25T08:16:21;18.00;99.90
37410;DHT22;23275;48.914;12.566;2023-04-25T08:18:47;17.70;99.90
37410;DHT22;23275;48.914;12.566;2023-04-25T08:21:12;18.40;99.90
37410;DHT22;23275;48.914;12.566;2023-04-25T08:23:38;19.80;99.90
37410;DHT22;23275;48.914;12.566;2023-04-25T08:26:04;19.90;99.60
37410;DHT22;23275;48.914;12.566;2023-04-25T08:28:31;19.10;99.00
37410;DHT22;23275;48.914;12.566;2023-04-25T08:30:57;17.90;99.90
37410;DHT22;23275;48.914;12.566;2023-04-25T08:33:22;17.10;99.90
37410;DHT22;23275;48.914;12.566;2023-04-25T08:35:48;16.40;99.90
37410;DHT22;23275;48.914;12.566;2023-04-25T08:38:14;15.40;99.90
37410;DHT22;23275;48.914;12.566;2023-04-25T08:40:40;14.60;99.90
37410;DHT22;23275;48.914;12.566;2023-04-25T08:43:06;13.90;99.90
37410;DHT22;23275;48.914;12.566;2023-04-25T08:45:39;13.40;99.90
37410;DHT22;23275;48.914;12.566;2023-04-25T08:48:14;13.00;99.90
37410;DHT22;23275;48.914;12.566;2023-04-25T08:50:52;12.80;99.90
37410;DHT22;23275;48.914;12.566;2023-04-25T08:53:28;12.60;99.90
37410;DHT22;23275;48.914;12.566;2023-04-25T08:55:56;12.60;99.90
37410;DHT22;23275;48.914;12.566;2023-04-25T08:58:22;13.50;99.90
37410;DHT22;23275;48.914;12.566;2023-04-25T09:00:49;17.00;99.90
37410;DHT22;23275;48.914;12.566;2023-04-25T09:03:15;19.40;99.90
37410;DHT22;23275;48.914;12.566;2023-04-25T09:05:41;21.40;99.90
37410;DHT22;23275;48.914;12.566;2023-04-25T09:08:07;26.60;91.10
37410;DHT22;23275;48.914;12.566;2023-04-25T09:10:34;30.80;65.00
37410;DHT22;23275;48.914;12.566;2023-04-25T09:13:12;33.60;54.10
37410;DHT22;23275;48.914;12.566;2023-04-25T09:15:49;35.80;46.60
37410;DHT22;23275;48.914;12.566;2023-04-25T09:18:27;36.70;43.30
37410;DHT22;23275;48.914;12.566;2023-04-25T09:20:54;37.10;42.10
37410;DHT22;23275;48.914;12.566;2023-04-25T09:23:21;35.70;40.90
37410;DHT22;23275;48.914;12.566;2023-04-25T09:25:56;32.00;43.80
37410;DHT22;23275;48.914;12.566;2023-04-25T09:28:25;32.90;43.40
37410;DHT22;23275;48.914;12.566;2023-04-25T09:30:58;33.60;42.30
37410;DHT22;23275;48.914;12.566;2023-04-25T09:33:28;34.40;42.40
37410;DHT22;23275;48.914;12.566;2023-04-25T09:36:04;34.80;40.30
37410;DHT22;23275;48.914;12.566;2023-04-25T09:38:42;30.20;44.60
37410;DHT22;23275;48.914;12.566;2023-04-25T09:41:08;27.70;49.10
37410;DHT22;23275;48.914;12.566;2023-04-25T09:43:35;26.10;51.00
37410;DHT22;23275;48.914;12.566;2023-04-25T09:46:01;23.90;54.30
37410;DHT22;23275;48.914;12.566;2023-04-25T09:48:28;21.20;60.30
37410;DHT22;23275;48.914;12.566;2023-04-25T09:51:04;19.30;65.00
37410;DHT22;23275;48.914;12.566;2023-04-25T09:53:31;17.60;70.70
37410;DHT22;23275;48.914;12.566;2023-04-25T09:55:59;16.50;74.70
37410;DHT22;23275;48.914;12.566;2023-04-25T09:58:25;15.70;78.20
37410;DHT22;23275;48.914;12.566;2023-04-25T10:00:57;15.00;78.60
37410;DHT22;23275;48.914;12.566;2023-04-25T10:03:25;14.70;82.80
37410;DHT22;23275;48.914;12.566;2023-04-25T10:05:52;14.40;88.30
37410;DHT22;23275;48.914;12.566;2023-04-25T10:08:19;13.90;93.60
37410;DHT22;23275;48.914;12.566;2023-04-25T10:10:46;13.50;97.00
37410;DHT22;23275;48.914;12.566;2023-04-25T10:13:12;13.20;99.90
37410;DHT22;23275;48.914;12.566;2023-04-25T10:15:40;13.00;99.90
37410;DHT22;23275;48.914;12.566;2023-04-25T10:18:06;12.80;99.90
37410;DHT22;23275;48.914;12.566;2023-04-25T10:20:32;12.50;99.90
37410;DHT22;23275;48.914;12.566;2023-04-25T10:23:13;12.40;99.90
37410;DHT22;23275;48.914;12.566;2023-04-25T10:25:39;12.40;99.90
37410;DHT22;23275;48.914;12.566;2023-04-25T10:28:05;12.50;99.90
37410;DHT22;23275;48.914;12.566;2023-04-25T10:30:31;12.50;99.90
37410;DHT22;23275;48.914;12.566;2023-04-25T10:32:58;13.30;99.90
37410;DHT22;23275;48.914;12.566;2023-04-25T10:35:29;14.90;99.90
37410;DHT22;23275;48.914;12.566;2023-04-25T10:38:10;16.10;99.90
37410;DHT22;23275;48.914;12.566;2023-04-25T10:40:37;18.50;99.90
37410;DHT22;23275;48.914;12.566;2023-04-25T10:45:57;24.20;89.90
37410;DHT22;23275;48.914;12.566;2023-04-25T10:48:27;26.30;79.60
37410;DHT22;23275;48.914;12.566;2023-04-25T10:51:09;27.90;70.40
37410;DHT22;23275;48.914;12.566;2023-04-25T10:53:35;28.90;63.10
37410;DHT22;23275;48.914;12.566;2023-04-25T10:56:08;29.10;58.90
37410;DHT22;23275;48.914;12.566;2023-04-25T10:58:34;27.50;56.90
37410;DHT22;23275;48.914;12.566;2023-04-25T11:01:01;24.60;61.00
37410;DHT22;23275;48.914;12.566;2023-04-25T11:03:26;21.60;67.70
37410;DHT22;23275;48.914;12.566;2023-04-25T11:05:52;19.10;74.10
37410;DHT22;23275;48.914;12.566;2023-04-25T11:08:27;17.30;82.00
37410;DHT22;23275;48.914;12.566;2023-04-25T11:10:59;16.00;90.20
37410;DHT22;23275;48.914;12.566;2023-04-25T11:13:29;15.20;93.90
37410;DHT22;23275;48.914;12.566;2023-04-25T11:15:55;14.70;98.10
37410;DHT22;23275;48.914;12.566;2023-04-25T11:18:21;14.40;99.90
37410;DHT22;23275;48.914;12.566;2023-04-25T11:20:48;15.00;99.90
37410;DHT22;23275;48.914;12.566;2023-04-25T11:23:15;16.10;99.90
37410;DHT22;23275;48.914;12.566;2023-04-25T11:25:41;16.60;99.90
37410;DHT22;23275;48.914;12.566;2023-04-25T11:28:07;16.60;99.90
37410;DHT22;23275;48.914;12.566;2023-04-25T11:30:33;16.60;99.90
37410;DHT22;23275;48.914;12.566;2023-04-25T11:32:58;16.40;99.90
37410;DHT22;23275;48.914;12.566;2023-04-25T11:35:25;16.30;99.90
37410;DHT22;23275;48.914;12.566;2023-04-25T11:37:51;16.60;99.90
37410;DHT22;23275;48.914;12.566;2023-04-25T11:40:17;16.60;98.90
37410;DHT22;23275;48.914;12.566;2023-04-25T11:42:47;16.60;99.90
37410;DHT22;23275;48.914;12.566;2023-04-25T11:45:13;16.50;98.10
37410;DHT22;23275;48.914;12.566;2023-04-25T11:47:39;16.40;97.80
37410;DHT22;23275;48.914;12.566;2023-04-25T11:50:07;16.40;99.40
37410;DHT22;23275;48.914;12.566;2023-04-25T11:52:43;16.50;99.90
37410;DHT22;23275;48.914;12.566;2023-04-25T11:55:16;16.60;99.90
37410;DHT22;23275;48.914;12.566;2023-04-25T11:57:44;16.20;96.90
37410;DHT22;23275;48.914;12.566;2023-04-25T12:00:23;16.00;98.30
37410;DHT22;23275;48.914;12.566;2023-04-25T12:02:54;15.80;97.20
37410;DHT22;23275;48.914;12.566;2023-04-25T12:05:23;15.90;98.70
37410;DHT22;23275;48.914;12.566;2023-04-25T12:07:48;16.10;98.10
37410;DHT22;23275;48.914;12.566;2023-04-25T12:10:15;15.80;97.40
37410;DHT22;23275;48.914;12.566;2023-04-25T12:12:42;15.40;97.40
37410;DHT22;23275;48.914;12.566;2023-04-25T12:15:16;15.00;97.30
37410;DHT22;23275;48.914;12.566;2023-04-25T12:17:48;14.80;98.10
37410;DHT22;23275;48.914;12.566;2023-04-25T12:20:19;14.70;99.10
37410;DHT22;23275;48.914;12.566;2023-04-25T12:22:51;14.90;99.90
37410;DHT22;23275;48.914;12.566;2023-04-25T12:25:39;15.10;97.50
37410;DHT22;23275;48.914;12.566;2023-04-25T12:31:06;15.10;97.10
37410;DHT22;23275;48.914;12.566;2023-04-25T12:33:36;15.10;97.40
37410;DHT22;23275;48.914;12.566;2023-04-25T12:36:03;15.20;96.60
37410;DHT22;23275;48.914;12.566;2023-04-25T12:38:36;15.50;96.80
37410;DHT22;23275;48.914;12.566;2023-04-25T12:41:02;15.50;94.80
37410;DHT22;23275;48.914;12.566;2023-04-25T12:43:27;15.40;96.10
37410;DHT22;23275;48.914;12.566;2023-04-25T12:45:55;15.50;97.20
37410;DHT22;23275;48.914;12.566;2023-04-25T12:48:20;15.70;97.00
37410;DHT22;23275;48.914;12.566;2023-04-25T12:50:47;15.80;95.80
37410;DHT22;23275;48.914;12.566;2023-04-25T12:53:18;15.70;95.40
37410;DHT22;23275;48.914;12.566;2023-04-25T12:55:44;15.50;94.90
37410;DHT22;23275;48.914;12.566;2023-04-25T12:58:15;15.20;95.10
37410;DHT22;23275;48.914;12.566;2023-04-25T13:00:41;15.10;95.70
37410;DHT22;23275;48.914;12.566;2023-04-25T13:03:08;14.70;95.10
37410;DHT22;23275;48.914;12.566;2023-04-25T13:05:34;14.50;95.80
37410;DHT22;23275;48.914;12.566;2023-04-25T13:08:00;14.30;96.00
37410;DHT22;23275;48.914;12.566;2023-04-25T13:10:25;14.30;95.70
37410;DHT22;23275;48.914;12.566;2023-04-25T13:12:51;14.30;96.70
37410;DHT22;23275;48.914;12.566;2023-04-25T13:15:16;14.50;96.30
37410;DHT22;23275;48.914;12.566;2023-04-25T13:17:42;14.70;96.10
37410;DHT22;23275;48.914;12.566;2023-04-25T13:20:09;15.00;96.20
37410;DHT22;23275;48.914;12.566;2023-04-25T13:22:36;15.00;94.30
37410;DHT22;23275;48.914;12.566;2023-04-25T13:25:06;14.70;94.40
37410;DHT22;23275;48.914;12.566;2023-04-25T13:27:33;14.60;95.20
37410;DHT22;23275;48.914;12.566;2023-04-25T13:30:00;14.50;95.10
37410;DHT22;23275;48.914;12.566;2023-04-25T13:32:26;14.40;94.90
37410;DHT22;23275;48.914;12.566;2023-04-25T13:34:53;14.20;95.70
37410;DHT22;23275;48.914;12.566;2023-04-25T13:37:18;14.00;97.10
37410;DHT22;23275;48.914;12.566;2023-04-25T13:39:44;13.70;97.90
37410;DHT22;23275;48.914;12.566;2023-04-25T13:42:09;13.60;98.10
37410;DHT22;23275;48.914;12.566;2023-04-25T13:44:36;13.50;97.10
37410;DHT22;23275;48.914;12.566;2023-04-25T13:47:01;13.50;97.00
37410;DHT22;23275;48.914;12.566;2023-04-25T13:49:27;13.60;98.10
37410;DHT22;23275;48.914;12.566;2023-04-25T13:51:52;13.60;97.40
37410;DHT22;23275;48.914;12.566;2023-04-25T13:54:18;13.60;96.40
37410;DHT22;23275;48.914;12.566;2023-04-25T13:56:43;13.80;96.50
37410;DHT22;23275;48.914;12.566;2023-04-25T13:59:09;13.90;95.90
37410;DHT22;23275;48.914;12.566;2023-04-25T14:01:35;14.10;96.50
37410;DHT22;23275;48.914;12.566;2023-04-25T14:04:01;14.10;94.20
37410;DHT22;23275;48.914;12.566;2023-04-25T14:06:29;14.20;96.20
37410;DHT22;23275;48.914;12.566;2023-04-25T14:08:55;14.50;95.90
37410;DHT22;23275;48.914;12.566;2023-04-25T14:11:21;14.60;94.10
37410;DHT22;23275;48.914;12.566;2023-04-25T14:13:47;14.50;93.90
37410;DHT22;23275;48.914;12.566;2023-04-25T14:16:15;14.30;93.40
37410;DHT22;23275;48.914;12.566;2023-04-25T14:18:41;14.20;93.30
37410;DHT22;23275;48.914;12.566;2023-04-25T14:21:06;13.90;92.30
37410;DHT22;23275;48.914;12.566;2023-04-25T14:23:32;13.80;93.60
37410;DHT22;23275;48.914;12.566;2023-04-25T14:25:57;13.60;93.60
37410;DHT22;23275;48.914;12.566;2023-04-25T14:28:23;13.40;93.90
37410;DHT22;23275;48.914;12.566;2023-04-25T14:30:48;13.30;94.40
37410;DHT22;23275;48.914;12.566;2023-04-25T14:33:14;13.30;94.30
37410;DHT22;23275;48.914;12.566;2023-04-25T14:35:40;13.50;95.40
37410;DHT22;23275;48.914;12.566;2023-04-25T14:38:05;13.70;96.10
37410;DHT22;23275;48.914;12.566;2023-04-25T14:40:31;13.70;96.50
37410;DHT22;23275;48.914;12.566;2023-04-25T14:42:56;13.60;97.10
37410;DHT22;23275;48.914;12.566;2023-04-25T14:45:22;13.60;95.60
37410;DHT22;23275;48.914;12.566;2023-04-25T14:47:48;13.50;96.00
37410;DHT22;23275;48.914;12.566;2023-04-25T14:50:13;13.40;97.00
37410;DHT22;23275;48.914;12.566;2023-04-25T14:52:39;13.40;97.50
37410;DHT22;23275;48.914;12.566;2023-04-25T14:55:04;13.30;97.60
37410;DHT22;23275;48.914;12.566;2023-04-25T14:57:33;13.10;98.60
37410;DHT22;23275;48.914;12.566;2023-04-25T14:59:59;13.00;99.10
37410;DHT22;23275;48.914;12.566;2023-04-25T15:02:26;12.80;99.00
37410;DHT22;23275;48.914;12.566;2023-04-25T15:04:53;12.80;98.80
37410;DHT22;23275;48.914;12.566;2023-04-25T15:07:18;12.70;99.80
37410;DHT22;23275;48.914;12.566;2023-04-25T15:09:44;12.70;99.30
37410;DHT22;23275;48.914;12.566;2023-04-25T15:12:10;12.70;98.70
37410;DHT22;23275;48.914;12.566;2023-04-25T15:14:35;12.60;98.60
37410;DHT22;23275;48.914;12.566;2023-04-25T15:17:01;12.70;99.30
37410;DHT22;23275;48.914;12.566;2023-04-25T15:19:27;12.80;98.40
37410;DHT22;23275;48.914;12.566;2023-04-25T15:21:53;12.80;98.90
37410;DHT22;23275;48.914;12.566;2023-04-25T15:24:19;12.80;98.50
37410;DHT22;23275;48.914;12.566;2023-04-25T15:26:45;12.70;98.80